LSMA METAR and TAF | Updated Today

LSMA METAR

Alpnach Air Base

Observation time: 16 min. ago

LSMA 080650Z AUTO 21002KT 5000NDV RA FEW009 BKN012 OVC025 00/M01 Q1002 RMK

Need help? Read our tutorial on how to read METARs or read the parsed version below.

Alpnach Air Base (LSMA) METAR

  • Weather conditions on Wed, 08 Dec 2021 06:50:00 +0000 (16 min. ago):
  • Present conditions: Rain
  • Clouds: A few at 274 meters; broken sky at 366 meters; overcast sky at 762 meters
  • Visibility:
  • Wind: 210 degrees at 2 knots
  • Temperature: 0 celsius
  • Dew point: -1 celsius
  • Pressure: 1002 millibars
  • Remarks: None


Useful to know...